createdAt,value
2023-12-11T00:00:49.469Z,1.7
2023-12-11T00:02:50.174Z,1.5
2023-12-11T00:04:49.964Z,1.5
2023-12-11T00:06:49.823Z,1.5
2023-12-11T00:08:49.595Z,1.5
2023-12-11T00:10:49.531Z,1.3
2023-12-11T00:12:50.263Z,1.3
2023-12-11T00:14:50.054Z,1.5
2023-12-11T00:16:49.873Z,1.4
2023-12-11T00:18:49.835Z,1.4
2023-12-11T00:20:49.725Z,1.4
2023-12-11T00:22:49.497Z,1.4
2023-12-11T00:24:50.399Z,1.4
2023-12-11T00:26:50.215Z,1.4
2023-12-11T00:28:49.957Z,1.6
2023-12-11T00:30:49.822Z,1.6
2023-12-11T00:32:49.774Z,1.4
2023-12-11T00:34:49.744Z,1.4
2023-12-11T00:36:49.700Z,1.4
2023-12-11T00:38:49.431Z,1.4
2023-12-11T00:40:50.242Z,1.3
2023-12-11T00:42:50.071Z,1.4
2023-12-11T00:44:49.847Z,1.7
2023-12-11T00:46:49.673Z,1.4
2023-12-11T00:48:49.607Z,1.4
2023-12-11T00:50:50.325Z,1.3
2023-12-11T00:52:50.113Z,1.5
2023-12-11T00:54:49.976Z,1.4
2023-12-11T00:56:49.745Z,1.7
2023-12-11T00:58:49.367Z,1.7
2023-12-11T01:00:50.267Z,1.6
2023-12-11T01:02:49.993Z,1.3
2023-12-11T01:04:49.892Z,1.4
2023-12-11T01:06:49.647Z,1.1
2023-12-11T01:08:49.538Z,1.1
2023-12-11T01:10:50.302Z,1.3
2023-12-11T01:12:50.101Z,1.5
2023-12-11T01:14:49.885Z,1.2
2023-12-11T01:16:49.743Z,1.3
2023-12-11T01:18:49.749Z,1.3
2023-12-11T01:20:49.549Z,1.3
2023-12-11T01:22:50.332Z,1.4
2023-12-11T01:24:50.275Z,1.3
2023-12-11T01:26:50.252Z,1.5
2023-12-11T01:28:49.970Z,1.5
2023-12-11T01:30:49.879Z,1.5
2023-12-11T01:32:49.645Z,1.5
2023-12-11T01:34:49.603Z,1.4
2023-12-11T01:36:49.502Z,1.4
2023-12-11T01:38:50.239Z,1.4
2023-12-11T01:40:50.162Z,1.5
2023-12-11T01:42:51.011Z,1.4
2023-12-11T01:44:49.830Z,1.5
2023-12-11T01:46:49.715Z,1.5
2023-12-11T01:48:49.801Z,1.5
2023-12-11T01:50:49.570Z,1.5
2023-12-11T01:52:50.149Z,1.3
2023-12-11T01:54:49.820Z,1.7
2023-12-11T01:56:49.589Z,1.7
2023-12-11T01:58:50.198Z,1.4
2023-12-11T02:00:50.123Z,1.6
2023-12-11T02:02:49.809Z,1.7
2023-12-11T02:04:49.792Z,1.4
2023-12-11T02:06:49.711Z,1.4
2023-12-11T02:08:49.485Z,1.4
2023-12-11T02:10:50.103Z,1.5
2023-12-11T02:12:49.759Z,1.2
2023-12-11T02:14:49.519Z,1.2
2023-12-11T02:16:50.323Z,1.3
2023-12-11T02:18:50.479Z,1.4
2023-12-11T02:20:49.374Z,1.4
2023-12-11T02:22:50.211Z,1.4
2023-12-11T02:24:50.042Z,1.4
2023-12-11T02:26:49.840Z,1.4
2023-12-11T02:28:49.630Z,1.6
2023-12-11T02:30:50.295Z,1.6
2023-12-11T02:32:50.068Z,1.5
2023-12-11T02:34:50.001Z,1.3
2023-12-11T02:36:49.909Z,1.3
2023-12-11T02:38:49.645Z,1.2
2023-12-11T02:40:49.506Z,1.4
2023-12-11T02:42:50.406Z,1.3
2023-12-11T02:44:50.130Z,1.3
2023-12-11T02:46:49.979Z,1.3
2023-12-11T02:48:50.061Z,1.3
2023-12-11T02:50:49.775Z,1.5
2023-12-11T02:52:49.647Z,1.3
2023-12-11T02:54:49.487Z,1.3
2023-12-11T02:56:50.220Z,1.4
2023-12-11T02:58:49.939Z,1.5
2023-12-11T03:00:49.942Z,1.7
2023-12-11T03:02:49.636Z,1.5
2023-12-11T03:04:49.640Z,1.5
2023-12-11T03:06:49.557Z,1.4
2023-12-11T03:08:50.389Z,1.6
2023-12-11T03:10:50.682Z,1.4
2023-12-11T03:12:49.589Z,1.4
2023-12-11T03:14:50.332Z,1.4
2023-12-11T03:16:49.942Z,1.5
2023-12-11T03:18:49.778Z,1.4
2023-12-11T03:20:49.634Z,1.5
2023-12-11T03:22:49.430Z,2.0
2023-12-11T03:24:50.270Z,2.0
2023-12-11T03:26:50.235Z,1.5
2023-12-11T03:28:50.151Z,1.4
2023-12-11T03:30:49.881Z,1.5
2023-12-11T03:32:49.722Z,1.5
2023-12-11T03:34:49.516Z,1.5
2023-12-11T03:36:50.367Z,1.3
2023-12-11T03:38:50.125Z,1.4
2023-12-11T03:40:49.735Z,1.5
2023-12-11T03:42:49.606Z,1.5
2023-12-11T03:44:49.383Z,1.2
2023-12-11T03:46:50.185Z,1.3
2023-12-11T03:48:50.112Z,1.2
2023-12-11T03:50:49.924Z,1.4
2023-12-11T03:52:49.646Z,1.4
2023-12-11T03:54:49.530Z,1.5
2023-12-11T03:56:49.405Z,1.3
2023-12-11T03:58:50.289Z,1.5
2023-12-11T04:00:50.023Z,1.6
2023-12-11T04:02:49.685Z,1.6
2023-12-11T04:06:50.364Z,1.6
2023-12-11T04:08:50.129Z,1.4
2023-12-11T04:10:49.764Z,1.5
2023-12-11T04:12:49.617Z,1.5
2023-12-11T04:14:49.405Z,1.4
2023-12-11T04:16:50.183Z,1.3
2023-12-11T04:18:50.116Z,1.5
2023-12-11T04:20:49.821Z,1.5
2023-12-11T04:22:49.643Z,1.5
2023-12-11T04:24:49.511Z,1.3
2023-12-11T04:26:49.465Z,1.6
2023-12-11T04:28:50.352Z,1.5
2023-12-11T04:30:50.191Z,1.5
2023-12-11T04:32:49.981Z,1.5
2023-12-11T04:34:49.726Z,1.5
2023-12-11T04:36:49.591Z,1.6
2023-12-11T04:38:49.351Z,1.5
2023-12-11T04:40:49.968Z,1.5
2023-12-11T04:42:49.820Z,1.5
2023-12-11T04:44:49.618Z,1.5
2023-12-11T04:46:49.422Z,1.6
2023-12-11T04:48:50.292Z,1.4
2023-12-11T04:50:50.071Z,1.4
2023-12-11T04:52:49.638Z,1.4
2023-12-11T04:54:50.398Z,1.5
2023-12-11T04:56:50.318Z,1.5
2023-12-11T04:58:50.091Z,1.4
2023-12-11T05:00:49.751Z,1.4
2023-12-11T05:02:49.606Z,1.7
2023-12-11T05:04:49.360Z,1.7
2023-12-11T05:06:50.188Z,1.6
2023-12-11T05:08:50.193Z,1.5
2023-12-11T05:10:49.977Z,1.5
2023-12-11T05:12:49.846Z,1.5
2023-12-11T05:14:49.627Z,1.4
2023-12-11T05:16:49.494Z,1.5
2023-12-11T05:18:50.341Z,1.6
2023-12-11T05:20:50.257Z,1.6
2023-12-11T05:22:49.867Z,1.5
2023-12-11T05:24:49.748Z,1.5
2023-12-11T05:26:49.527Z,1.7
2023-12-11T05:28:50.317Z,1.7
2023-12-11T05:30:50.303Z,1.9
2023-12-11T05:32:50.184Z,1.5
2023-12-11T05:34:50.072Z,1.5
2023-12-11T05:36:49.772Z,1.5
2023-12-11T05:38:49.601Z,1.5
2023-12-11T05:40:49.476Z,1.8
2023-12-11T05:42:50.286Z,1.5
2023-12-11T05:44:50.054Z,1.7
2023-12-11T05:46:49.842Z,1.5
2023-12-11T05:48:49.767Z,1.5
2023-12-11T05:50:49.486Z,1.6
2023-12-11T05:52:50.282Z,1.4
2023-12-11T05:54:50.167Z,1.4
2023-12-11T05:56:50.031Z,1.8
2023-12-11T05:58:49.743Z,1.7
2023-12-11T06:00:49.750Z,1.6
2023-12-11T06:02:49.593Z,1.4
2023-12-11T06:04:49.380Z,1.7
2023-12-11T06:06:50.261Z,1.7
2023-12-11T06:08:50.012Z,1.8
2023-12-11T06:10:49.846Z,1.5
2023-12-11T06:12:49.750Z,1.4
2023-12-11T06:14:49.991Z,1.4
2023-12-11T06:16:49.875Z,1.5
2023-12-11T06:18:49.789Z,1.3
2023-12-11T06:20:49.736Z,1.4
2023-12-11T06:22:49.509Z,1.6
2023-12-11T06:24:50.375Z,1.6
2023-12-11T06:26:50.137Z,1.6
2023-12-11T06:28:49.728Z,1.4
2023-12-11T06:30:49.390Z,1.6
2023-12-11T06:32:50.213Z,1.7
2023-12-11T06:34:50.101Z,1.9
2023-12-11T06:36:50.072Z,1.9
2023-12-11T06:38:50.250Z,1.7
2023-12-11T06:40:50.040Z,1.7
2023-12-11T06:42:49.752Z,1.9
2023-12-11T06:44:49.494Z,1.8
2023-12-11T06:46:49.522Z,1.8
2023-12-11T06:48:50.455Z,1.9
2023-12-11T06:50:50.353Z,1.9
2023-12-11T06:52:50.136Z,1.9
2023-12-11T06:54:49.980Z,2.3
2023-12-11T06:56:49.753Z,2.3
2023-12-11T06:58:49.680Z,2.0
2023-12-11T07:00:49.541Z,2.0
2023-12-11T07:02:49.430Z,2.0
2023-12-11T07:04:50.371Z,1.9
2023-12-11T07:06:50.293Z,2.0
2023-12-11T07:08:50.045Z,2.0
2023-12-11T07:10:49.961Z,1.8
2023-12-11T07:12:49.700Z,1.6
2023-12-11T07:14:49.560Z,1.6
2023-12-11T07:16:50.303Z,1.9
2023-12-11T07:18:50.031Z,1.8
2023-12-11T07:20:49.944Z,1.8
2023-12-11T07:22:49.801Z,1.9
2023-12-11T07:24:49.604Z,1.9
2023-12-11T07:26:49.388Z,2.4
2023-12-11T07:28:50.215Z,1.9
2023-12-11T07:30:50.053Z,2.2
2023-12-11T07:32:49.847Z,2.2
2023-12-11T07:34:49.708Z,2.1
2023-12-11T07:36:49.592Z,1.9
2023-12-11T07:38:50.268Z,1.8
2023-12-11T07:40:50.085Z,1.8
2023-12-11T07:42:49.953Z,1.7
2023-12-11T07:44:49.723Z,1.7
2023-12-11T07:46:49.504Z,1.9
2023-12-11T07:48:50.507Z,2.3
2023-12-11T07:50:49.382Z,2.4
2023-12-11T07:52:50.073Z,2.4
2023-12-11T07:54:49.792Z,2.4
2023-12-11T07:56:49.601Z,2.3
2023-12-11T07:58:49.425Z,2.3
2023-12-11T08:00:50.345Z,2.4
2023-12-11T08:02:50.236Z,2.3
2023-12-11T08:04:50.171Z,1.8
2023-12-11T08:06:49.592Z,2.0
2023-12-11T08:08:49.399Z,2.0
2023-12-11T08:10:50.225Z,2.0
2023-12-11T08:12:50.063Z,2.0
2023-12-11T08:14:49.829Z,1.9
2023-12-11T08:16:49.633Z,2.0
2023-12-11T08:18:49.749Z,2.0
2023-12-11T08:20:52.625Z,2.0
2023-12-11T08:22:50.105Z,4.8
2023-12-11T08:24:49.910Z,2.1
2023-12-11T08:26:49.805Z,2.0
2023-12-11T08:28:49.730Z,2.1
2023-12-11T08:30:49.649Z,2.1
2023-12-11T08:32:49.631Z,2.1
2023-12-11T08:34:49.677Z,3.0
2023-12-11T08:36:49.637Z,2.0
2023-12-11T08:38:49.817Z,2.0
2023-12-11T08:40:49.617Z,1.8
2023-12-11T08:42:49.545Z,1.8
2023-12-11T08:44:49.485Z,2.4
2023-12-11T08:46:49.465Z,2.0
2023-12-11T08:48:49.500Z,1.9
2023-12-11T08:50:50.289Z,1.9
2023-12-11T08:52:50.121Z,2.3
2023-12-11T08:54:49.868Z,2.3
2023-12-11T08:56:49.537Z,2.3
2023-12-11T08:58:49.365Z,1.9
2023-12-11T09:00:50.288Z,1.9
2023-12-11T09:02:50.237Z,1.9
2023-12-11T09:04:50.016Z,3.4
2023-12-11T09:06:49.827Z,3.4
2023-12-11T09:08:49.685Z,2.1
2023-12-11T09:10:49.470Z,2.7
2023-12-11T09:12:50.328Z,3.0
2023-12-11T09:14:50.046Z,2.0
2023-12-11T09:16:49.723Z,2.8
2023-12-11T09:18:49.506Z,2.3
2023-12-11T09:20:50.499Z,2.3
2023-12-11T09:22:50.363Z,1.7
2023-12-11T09:24:50.240Z,1.5
2023-12-11T09:26:49.946Z,1.6
2023-12-11T09:28:52.224Z,1.6
2023-12-11T09:30:49.414Z,1.6
2023-12-11T09:32:50.300Z,1.8
2023-12-11T09:34:50.345Z,1.6
2023-12-11T09:36:50.299Z,1.6
2023-12-11T09:38:49.403Z,1.6
2023-12-11T09:40:49.463Z,1.7
2023-12-11T09:42:50.307Z,1.9
2023-12-11T09:44:50.111Z,1.6
2023-12-11T09:46:49.888Z,1.6
2023-12-11T09:48:49.843Z,1.9
2023-12-11T09:50:49.502Z,2.3
2023-12-11T09:52:50.341Z,1.6
2023-12-11T09:54:50.005Z,3.1
2023-12-11T09:56:49.773Z,3.1
2023-12-11T09:58:49.587Z,6.7
2023-12-11T10:00:50.302Z,1.9
2023-12-11T10:02:50.088Z,1.4
2023-12-11T10:04:50.042Z,1.4
2023-12-11T10:06:49.923Z,1.4
2023-12-11T10:08:49.758Z,1.6
2023-12-11T10:10:49.475Z,1.6
2023-12-11T10:12:50.349Z,1.7
2023-12-11T10:14:50.094Z,1.7
2023-12-11T10:16:49.938Z,1.5
2023-12-11T10:18:49.951Z,1.7
2023-12-11T10:20:50.040Z,1.5
2023-12-11T10:22:49.961Z,1.9
2023-12-11T10:24:49.840Z,1.9
2023-12-11T10:26:49.592Z,1.8
2023-12-11T10:28:49.532Z,1.6
2023-12-11T10:30:50.299Z,1.4
2023-12-11T10:32:50.066Z,1.4
2023-12-11T10:34:49.960Z,1.5
2023-12-11T10:36:49.898Z,1.5
2023-12-11T10:38:49.722Z,1.6
2023-12-11T10:40:49.708Z,1.3
2023-12-11T10:42:49.466Z,1.5
2023-12-11T10:44:53.883Z,1.5
2023-12-11T10:46:49.552Z,1.5
2023-12-11T10:48:49.577Z,1.2
2023-12-11T10:50:49.375Z,1.9
2023-12-11T10:52:50.228Z,1.7
2023-12-11T10:54:50.135Z,1.7
2023-12-11T10:56:50.103Z,1.5
2023-12-11T10:58:49.797Z,1.6
2023-12-11T11:00:49.870Z,1.5
2023-12-11T11:02:49.697Z,1.5
2023-12-11T11:04:49.712Z,1.6
2023-12-11T11:06:49.545Z,1.5
2023-12-11T11:08:49.531Z,1.5
2023-12-11T11:10:50.324Z,1.5
2023-12-11T11:12:51.079Z,1.6
2023-12-11T11:14:50.165Z,1.6
2023-12-11T11:16:49.948Z,1.8
2023-12-11T11:18:49.887Z,1.8
2023-12-11T11:20:49.806Z,1.7
2023-12-11T11:22:49.768Z,1.6
2023-12-11T11:24:49.806Z,1.6
2023-12-11T11:26:50.794Z,1.8
2023-12-11T11:28:49.687Z,1.5
2023-12-11T11:30:49.572Z,1.5
2023-12-11T11:32:49.515Z,1.5
2023-12-11T11:34:49.514Z,1.6
2023-12-11T11:36:50.352Z,1.8
2023-12-11T11:38:50.115Z,1.7
2023-12-11T11:40:50.244Z,1.5
2023-12-11T11:42:50.181Z,1.5
2023-12-11T11:44:49.980Z,1.6
2023-12-11T11:46:49.765Z,2.0
2023-12-11T11:48:49.751Z,1.6
2023-12-11T11:50:49.625Z,1.6
2023-12-11T11:52:49.424Z,1.6
2023-12-11T11:54:50.269Z,1.6
2023-12-11T11:56:50.049Z,1.8
2023-12-11T11:58:49.873Z,1.8
2023-12-11T12:00:49.732Z,1.8
2023-12-11T12:02:49.570Z,1.8
2023-12-11T12:04:50.334Z,1.7
2023-12-11T12:06:50.129Z,1.7
2023-12-11T12:08:49.834Z,1.8
2023-12-11T12:10:49.649Z,1.6
2023-12-11T12:12:49.671Z,1.6
2023-12-11T12:14:49.583Z,1.6
2023-12-11T12:16:50.189Z,1.8
2023-12-11T12:18:49.889Z,1.8
2023-12-11T12:20:49.626Z,1.8
2023-12-11T12:22:50.246Z,1.8
2023-12-11T12:24:50.328Z,2.0
2023-12-11T12:26:50.127Z,1.6
2023-12-11T12:28:49.854Z,1.7
2023-12-11T12:30:49.522Z,1.7
2023-12-11T12:32:50.388Z,1.7
2023-12-11T12:34:50.196Z,1.5
2023-12-11T12:36:50.181Z,1.6
2023-12-11T12:38:49.990Z,1.5
2023-12-11T12:40:49.736Z,1.6
2023-12-11T12:42:49.628Z,1.6
2023-12-11T12:44:49.409Z,1.5
2023-12-11T12:46:50.184Z,1.5
2023-12-11T12:48:50.132Z,1.9
2023-12-11T12:50:49.880Z,1.9
2023-12-11T12:52:49.676Z,5.1
2023-12-11T12:54:49.541Z,1.7
2023-12-11T12:56:49.505Z,1.6
2023-12-11T12:58:50.300Z,1.7
2023-12-11T13:00:50.177Z,1.7
2023-12-11T13:02:49.968Z,1.7
2023-12-11T13:04:49.785Z,1.9
2023-12-11T13:06:49.680Z,3.7
2023-12-11T13:08:49.370Z,3.7
2023-12-11T13:10:49.950Z,1.9
2023-12-11T13:12:49.600Z,1.6
2023-12-11T13:14:49.410Z,1.6
2023-12-11T13:16:50.220Z,1.8
2023-12-11T13:18:49.894Z,1.8
2023-12-11T13:20:49.766Z,1.9
2023-12-11T13:22:49.649Z,1.8
2023-12-11T13:24:50.338Z,1.8
2023-12-11T13:26:50.122Z,2.2
2023-12-11T13:28:50.122Z,1.7
2023-12-11T13:30:49.958Z,1.7
2023-12-11T13:32:49.776Z,1.7
2023-12-11T13:34:49.612Z,2.0
2023-12-11T13:36:49.434Z,2.0
2023-12-11T13:38:50.225Z,2.0
2023-12-11T13:40:49.978Z,1.7
2023-12-11T13:42:50.858Z,1.8
2023-12-11T13:44:50.274Z,1.9
2023-12-11T13:46:50.051Z,1.9
2023-12-11T13:48:49.824Z,1.9
2023-12-11T13:50:49.718Z,1.8
2023-12-11T13:52:49.529Z,2.0
2023-12-11T13:54:50.330Z,2.0
2023-12-11T13:56:50.176Z,1.9
2023-12-11T13:58:49.972Z,1.9
2023-12-11T14:00:49.801Z,2.1
2023-12-11T14:03:00.860Z,2.0
2023-12-11T14:04:49.534Z,2.0
2023-12-11T14:06:49.442Z,1.9
2023-12-11T14:08:50.234Z,1.9
2023-12-11T14:10:50.011Z,2.1
2023-12-11T14:12:49.668Z,2.2
2023-12-11T14:14:49.463Z,2.2
2023-12-11T14:16:50.338Z,2.0
2023-12-11T14:18:50.147Z,2.0
2023-12-11T14:20:49.909Z,2.1
2023-12-11T14:22:49.527Z,1.8
2023-12-11T14:24:50.373Z,1.9
2023-12-11T14:26:54.695Z,1.9
2023-12-11T14:28:49.959Z,1.9
2023-12-11T14:30:49.837Z,1.9
2023-12-11T14:32:49.921Z,2.1
2023-12-11T14:34:50.006Z,1.7
2023-12-11T14:36:49.832Z,1.7
2023-12-11T14:38:49.698Z,2.1
2023-12-11T14:40:49.449Z,2.1
2023-12-11T14:42:50.308Z,2.1
2023-12-11T14:44:50.098Z,2.0
2023-12-11T14:46:49.871Z,2.0
2023-12-11T14:48:49.819Z,2.1
2023-12-11T14:50:49.590Z,2.1
2023-12-11T14:52:49.348Z,2.3
2023-12-11T14:54:50.250Z,2.2
2023-12-11T14:56:49.978Z,2.2
2023-12-11T14:58:49.770Z,2.3
2023-12-11T15:00:49.720Z,2.3
2023-12-11T15:02:49.474Z,2.3
2023-12-11T15:04:50.243Z,2.2
2023-12-11T15:06:50.155Z,2.2
2023-12-11T15:08:49.872Z,2.1
2023-12-11T15:10:49.673Z,2.3
2023-12-11T15:12:49.515Z,2.3
2023-12-11T15:14:49.724Z,2.5
2023-12-11T15:16:49.540Z,2.5
2023-12-11T15:18:50.591Z,2.3
2023-12-11T15:20:50.334Z,2.1
2023-12-11T15:22:49.938Z,2.1
2023-12-11T15:24:49.627Z,2.4
2023-12-11T15:26:49.392Z,2.1
2023-12-11T15:28:50.225Z,2.2
2023-12-11T15:30:50.079Z,2.1
2023-12-11T15:32:50.034Z,2.1
2023-12-11T15:34:49.855Z,2.1
2023-12-11T15:36:49.772Z,1.9
2023-12-11T15:38:49.499Z,2.2
2023-12-11T15:40:50.297Z,2.3
2023-12-11T15:42:50.141Z,2.3
2023-12-11T15:44:49.925Z,2.0
2023-12-11T15:46:49.782Z,2.7
2023-12-11T15:48:49.701Z,2.3
2023-12-11T15:50:49.680Z,2.2
2023-12-11T15:52:49.373Z,2.2
2023-12-11T15:54:50.253Z,2.1
2023-12-11T15:56:50.042Z,2.3
2023-12-11T15:58:49.837Z,2.6
2023-12-11T16:00:49.738Z,2.4
2023-12-11T16:02:49.583Z,2.4
2023-12-11T16:04:49.504Z,2.3
2023-12-11T16:06:50.309Z,2.4
2023-12-11T16:08:50.096Z,2.3
2023-12-11T16:10:49.896Z,2.3
2023-12-11T16:12:49.813Z,2.2
2023-12-11T16:14:49.747Z,1.9
2023-12-11T16:16:49.779Z,1.8
2023-12-11T16:18:49.890Z,1.8
2023-12-11T16:20:49.813Z,2.3
2023-12-11T16:22:49.567Z,2.3
2023-12-11T16:24:50.251Z,2.7
2023-12-11T16:26:50.056Z,2.2
2023-12-11T16:28:49.805Z,2.5
2023-12-11T16:30:49.775Z,2.2
2023-12-11T16:32:49.763Z,2.2
2023-12-11T16:34:49.542Z,2.4
2023-12-11T16:36:49.530Z,2.2
2023-12-11T16:38:50.347Z,2.5
2023-12-11T16:40:50.157Z,2.4
2023-12-11T16:42:49.787Z,2.4
2023-12-11T16:44:49.569Z,2.7
2023-12-11T16:46:49.584Z,2.1
2023-12-11T16:48:50.369Z,2.1
2023-12-11T16:50:50.275Z,2.6
2023-12-11T16:52:50.002Z,2.6
2023-12-11T16:54:49.711Z,2.2
2023-12-11T16:56:49.489Z,2.3
2023-12-11T16:58:50.249Z,2.2
2023-12-11T17:00:50.098Z,2.2
2023-12-11T17:02:49.882Z,2.3
2023-12-11T17:04:49.841Z,2.4
2023-12-11T17:06:49.764Z,2.2
2023-12-11T17:08:49.531Z,1.9
2023-12-11T17:10:50.337Z,1.9
2023-12-11T17:12:50.188Z,2.3
2023-12-11T17:14:49.986Z,2.5
2023-12-11T17:16:49.754Z,2.4
2023-12-11T17:18:49.759Z,2.4
2023-12-11T17:20:49.647Z,2.2
2023-12-11T17:22:49.457Z,2.6
2023-12-11T17:24:50.271Z,2.2
2023-12-11T17:26:50.048Z,2.2
2023-12-11T17:28:49.665Z,2.4
2023-12-11T17:30:50.325Z,2.2
2023-12-11T17:32:50.103Z,2.2
2023-12-11T17:34:50.095Z,2.4
2023-12-11T17:36:50.011Z,2.4
2023-12-11T17:38:49.853Z,2.4
2023-12-11T17:40:49.582Z,2.5
2023-12-11T17:42:49.480Z,2.2
2023-12-11T17:44:49.396Z,2.4
2023-12-11T17:46:50.193Z,2.4
2023-12-11T17:48:49.881Z,2.4
2023-12-11T17:50:49.639Z,2.3
2023-12-11T17:52:49.483Z,2.1
2023-12-11T17:54:50.551Z,2.1
2023-12-11T17:56:50.303Z,2.3
2023-12-11T17:58:50.106Z,2.3
2023-12-11T18:00:49.988Z,2.4
2023-12-11T18:02:49.694Z,2.4
2023-12-11T18:04:49.648Z,2.2
2023-12-11T18:06:49.696Z,2.2
2023-12-11T18:08:49.368Z,2.3
2023-12-11T18:10:50.195Z,2.4
2023-12-11T18:12:50.014Z,2.3
2023-12-11T18:14:49.794Z,2.5
2023-12-11T18:16:49.634Z,2.5
2023-12-11T18:18:49.524Z,2.4
2023-12-11T18:20:50.252Z,2.5
2023-12-11T18:22:50.043Z,2.4
2023-12-11T18:24:49.687Z,2.4
2023-12-11T18:26:49.544Z,2.4
2023-12-11T18:28:50.347Z,2.4
2023-12-11T18:30:50.192Z,2.2
2023-12-11T18:32:49.950Z,2.6
2023-12-11T18:34:54.666Z,2.4
2023-12-11T18:36:49.962Z,2.4
2023-12-11T18:38:49.777Z,2.7
2023-12-11T18:40:49.626Z,2.2
2023-12-11T18:42:49.480Z,2.6
2023-12-11T18:44:50.251Z,2.7
2023-12-11T18:46:49.792Z,2.7
2023-12-11T18:48:49.821Z,2.3
2023-12-11T18:50:49.882Z,2.3
2023-12-11T18:52:49.499Z,2.1
2023-12-11T18:54:50.338Z,2.1
2023-12-11T18:56:50.099Z,2.2
2023-12-11T18:58:49.682Z,2.3
2023-12-11T19:00:50.433Z,2.4
2023-12-11T19:02:50.517Z,2.2
2023-12-11T19:04:49.444Z,2.5
2023-12-11T19:06:50.211Z,2.5
2023-12-11T19:08:50.012Z,2.6
2023-12-11T19:10:49.797Z,2.2
2023-12-11T19:12:49.484Z,2.3
2023-12-11T19:14:50.241Z,2.3
2023-12-11T19:16:50.134Z,2.2
2023-12-11T19:18:50.037Z,2.5
2023-12-11T19:20:49.892Z,2.0
2023-12-11T19:22:49.753Z,2.3
2023-12-11T19:24:49.520Z,2.3
2023-12-11T19:26:50.347Z,2.4
2023-12-11T19:28:50.132Z,2.2
2023-12-11T19:30:49.872Z,2.0
2023-12-11T19:32:49.818Z,2.0
2023-12-11T19:34:49.731Z,2.2
2023-12-11T19:36:49.413Z,2.0
2023-12-11T19:38:50.223Z,2.1
2023-12-11T19:40:50.031Z,2.1
2023-12-11T19:42:49.728Z,2.7
2023-12-11T19:44:49.480Z,2.7
2023-12-11T19:46:50.298Z,2.5
2023-12-11T19:48:50.279Z,2.9
2023-12-11T19:50:50.111Z,2.4
2023-12-11T19:52:51.428Z,2.4
2023-12-11T19:54:49.745Z,2.4
2023-12-11T19:56:49.627Z,2.4
2023-12-11T19:58:49.346Z,2.7
2023-12-11T20:00:50.285Z,2.4
2023-12-11T20:02:50.104Z,2.3
2023-12-11T20:04:50.074Z,2.3
2023-12-11T20:06:49.823Z,2.8
2023-12-11T20:08:49.429Z,2.3
2023-12-11T20:10:50.263Z,2.6
2023-12-11T20:12:50.097Z,2.6
2023-12-11T20:14:49.862Z,3.4
2023-12-11T20:16:49.680Z,2.2
2023-12-11T20:18:50.420Z,2.7
2023-12-11T20:20:50.237Z,2.3
2023-12-11T20:22:49.900Z,2.3
2023-12-11T20:24:49.547Z,2.5
2023-12-11T20:26:50.288Z,2.3
2023-12-11T20:28:49.994Z,2.3
2023-12-11T20:30:49.853Z,2.5
2023-12-11T20:32:49.848Z,2.5
2023-12-11T20:34:49.762Z,3.1
2023-12-11T20:36:49.654Z,2.3
2023-12-11T20:38:49.463Z,2.4
2023-12-11T20:40:50.263Z,2.4
2023-12-11T20:42:50.112Z,2.2
2023-12-11T20:44:49.895Z,2.4
2023-12-11T20:46:49.695Z,2.2
2023-12-11T20:48:50.400Z,2.2
2023-12-11T20:50:50.153Z,2.5
2023-12-11T20:52:49.943Z,2.5
2023-12-11T20:54:49.623Z,2.2
2023-12-11T20:56:49.449Z,2.1
2023-12-11T20:58:50.170Z,2.6
2023-12-11T21:00:50.089Z,2.6
2023-12-11T21:02:49.804Z,3.0
2023-12-11T21:04:49.811Z,2.5
2023-12-11T21:06:49.749Z,2.6
2023-12-11T21:08:49.521Z,2.6
2023-12-11T21:10:50.266Z,2.6
2023-12-11T21:12:49.905Z,2.5
2023-12-11T21:14:49.758Z,2.5
2023-12-11T21:16:49.548Z,2.2
2023-12-11T21:18:49.549Z,2.2
2023-12-11T21:20:49.381Z,2.5
2023-12-11T21:22:50.147Z,2.5
2023-12-11T21:24:49.796Z,3.2
2023-12-11T21:26:49.727Z,2.9
2023-12-11T21:28:49.414Z,3.0
2023-12-11T21:30:50.261Z,3.0
2023-12-11T21:32:50.116Z,2.9
2023-12-11T21:34:50.202Z,2.4
2023-12-11T21:36:49.916Z,2.4
2023-12-11T21:38:49.794Z,2.5
2023-12-11T21:40:49.497Z,2.6
2023-12-11T21:42:49.516Z,1.9
2023-12-11T21:44:50.353Z,2.4
2023-12-11T21:46:50.154Z,2.4
2023-12-11T21:48:50.527Z,2.5
2023-12-11T21:50:49.377Z,2.4
2023-12-11T21:52:50.061Z,2.5
2023-12-11T21:54:49.789Z,2.5
2023-12-11T21:56:49.720Z,2.6
2023-12-11T21:58:49.437Z,2.6
2023-12-11T22:00:50.336Z,2.6
2023-12-11T22:02:50.114Z,2.3
2023-12-11T22:04:50.078Z,2.2
2023-12-11T22:06:49.687Z,2.2
2023-12-11T22:08:49.536Z,2.2
2023-12-11T22:10:49.543Z,2.5
2023-12-11T22:12:49.370Z,2.2
2023-12-11T22:14:50.144Z,2.4
2023-12-11T22:16:49.728Z,2.5
2023-12-11T22:18:49.767Z,2.5
2023-12-11T22:20:49.599Z,2.0
2023-12-11T22:22:49.397Z,2.7
2023-12-11T22:24:50.122Z,2.7
2023-12-11T22:26:49.829Z,2.3
2023-12-11T22:28:49.663Z,2.6
2023-12-11T22:30:50.291Z,2.3
2023-12-11T22:32:50.138Z,2.1
2023-12-11T22:34:49.894Z,2.4
2023-12-11T22:36:49.788Z,2.4
2023-12-11T22:38:49.540Z,2.2
2023-12-11T22:40:49.346Z,2.1
2023-12-11T22:42:50.177Z,2.2
2023-12-11T22:44:49.962Z,2.4
2023-12-11T22:46:49.565Z,2.4
2023-12-11T22:48:50.303Z,2.2
2023-12-11T22:50:50.224Z,2.1
2023-12-11T22:52:50.050Z,2.3
2023-12-11T22:54:49.962Z,2.3
2023-12-11T22:56:49.620Z,2.3
2023-12-11T22:58:50.304Z,2.2
2023-12-11T23:00:50.313Z,2.3
2023-12-11T23:02:50.295Z,2.3
2023-12-11T23:04:50.197Z,2.2
2023-12-11T23:06:49.937Z,2.2
2023-12-11T23:08:49.677Z,2.2
2023-12-11T23:10:50.363Z,2.8
2023-12-11T23:12:50.201Z,2.8
2023-12-11T23:14:50.006Z,2.2
2023-12-11T23:16:49.605Z,2.2
2023-12-11T23:18:49.461Z,2.4
2023-12-11T23:20:49.431Z,2.2
2023-12-11T23:22:50.242Z,2.2
2023-12-11T23:24:50.089Z,2.3
2023-12-11T23:26:49.882Z,2.3
2023-12-11T23:28:49.673Z,2.5
2023-12-11T23:30:50.310Z,2.3
2023-12-11T23:32:50.270Z,2.5
2023-12-11T23:34:50.187Z,2.5
2023-12-11T23:36:49.957Z,2.1
2023-12-11T23:38:49.757Z,2.8
2023-12-11T23:40:49.569Z,2.6
2023-12-11T23:42:49.521Z,2.9
2023-12-11T23:44:50.212Z,2.9
2023-12-11T23:46:49.940Z,2.6
2023-12-11T23:48:49.706Z,2.8
2023-12-11T23:50:49.488Z,2.8
2023-12-11T23:52:50.251Z,2.5
2023-12-11T23:54:49.854Z,2.5
2023-12-11T23:56:49.707Z,2.4
2023-12-11T23:58:49.504Z,3.1
